createdAt,value
2019-03-09T00:02:46.537Z,8.05
2019-03-09T00:05:25.935Z,8.00
2019-03-09T00:07:55.552Z,8.00
2019-03-09T00:10:25.196Z,7.99
2019-03-09T00:13:15.893Z,7.96
2019-03-09T00:15:45.549Z,7.96
2019-03-09T00:18:15.218Z,7.95
2019-03-09T00:20:44.571Z,7.95
2019-03-09T00:23:52.663Z,8.01
2019-03-09T00:26:35.972Z,7.99
2019-03-09T00:29:24.734Z,7.99
2019-03-09T00:35:04.247Z,8.00
2019-03-09T00:37:33.626Z,8.00
2019-03-09T00:42:42.161Z,8.01
2019-03-09T00:45:31.750Z,7.99
2019-03-09T00:48:01.255Z,7.89
2019-03-09T00:50:31.747Z,7.89
2019-03-09T00:53:01.375Z,7.90
2019-03-09T00:55:31.999Z,7.88
2019-03-09T00:58:20.746Z,7.86
2019-03-09T01:00:50.441Z,7.86
2019-03-09T01:03:19.878Z,7.84
2019-03-09T01:05:49.294Z,7.82
2019-03-09T01:08:18.660Z,7.79
2019-03-09T01:10:48.600Z,7.77
2019-03-09T01:13:17.972Z,7.77
2019-03-09T01:15:47.616Z,7.66
2019-03-09T01:18:36.624Z,7.72
2019-03-09T01:21:06.324Z,7.72
2019-03-09T01:23:35.688Z,7.77
2019-03-09T01:26:05.346Z,7.76
2019-03-09T01:28:34.991Z,7.77
2019-03-09T01:31:16.453Z,7.74
2019-03-09T01:33:45.810Z,7.74
2019-03-09T01:36:15.470Z,7.74
2019-03-09T01:38:45.118Z,7.75
2019-03-09T01:44:29.385Z,7.75
2019-03-09T01:46:58.738Z,7.78
2019-03-09T01:49:28.111Z,7.74
2019-03-09T01:55:43.001Z,7.76
2019-03-09T01:58:12.902Z,7.75
2019-03-09T02:00:44.961Z,7.74
2019-03-09T02:03:14.633Z,7.74
2019-03-09T02:05:43.980Z,7.73
2019-03-09T02:08:13.647Z,7.73
2019-03-09T02:10:43.272Z,7.73
2019-03-09T02:13:12.781Z,7.72
2019-03-09T02:15:42.133Z,7.71
2019-03-09T02:18:11.916Z,7.71
2019-03-09T02:20:41.559Z,7.71
2019-03-09T02:23:11.229Z,7.71
2019-03-09T02:26:00.215Z,7.74
2019-03-09T02:28:32.368Z,7.74
2019-03-09T02:31:03.633Z,7.74
2019-03-09T02:33:33.126Z,7.75
2019-03-09T02:36:22.050Z,7.76
2019-03-09T02:41:47.056Z,7.73
2019-03-09T02:44:16.714Z,7.68
2019-03-09T02:46:46.394Z,7.68
2019-03-09T02:49:26.048Z,7.72
2019-03-09T02:51:55.408Z,7.72
2019-03-09T02:54:24.925Z,7.72
2019-03-09T02:56:54.284Z,7.69
2019-03-09T02:59:33.991Z,7.66
2019-03-09T03:02:22.467Z,7.66
2019-03-09T03:04:51.836Z,7.64
2019-03-09T03:07:21.201Z,7.62
2019-03-09T03:09:50.843Z,7.62
2019-03-09T03:12:20.192Z,7.61
2019-03-09T03:14:51.200Z,7.60
2019-03-09T03:20:35.421Z,7.56
2019-03-09T03:23:05.086Z,7.57
2019-03-09T03:25:34.420Z,7.57
2019-03-09T03:28:23.689Z,7.58
2019-03-09T03:30:53.308Z,7.58
2019-03-09T03:33:32.801Z,7.56
2019-03-09T03:36:02.142Z,7.56
2019-03-09T03:38:32.574Z,7.58
2019-03-09T03:41:32.529Z,7.61
2019-03-09T03:44:21.712Z,7.54
2019-03-09T03:46:51.106Z,7.54
2019-03-09T03:52:10.756Z,7.64
2019-03-09T03:54:40.369Z,7.62
2019-03-09T03:57:09.991Z,7.65
2019-03-09T03:59:39.992Z,7.65
2019-03-09T04:04:58.009Z,7.70
2019-03-09T04:07:37.657Z,7.72
2019-03-09T04:10:29.464Z,7.74
2019-03-09T04:12:59.447Z,7.78
2019-03-09T04:15:29.108Z,7.78
2019-03-09T04:21:32.641Z,7.87
2019-03-09T04:24:02.199Z,7.90
2019-03-09T04:26:32.552Z,7.90
2019-03-09T04:29:21.525Z,7.95
2019-03-09T04:31:51.182Z,7.95
2019-03-09T04:34:20.542Z,7.98
2019-03-09T04:40:18.587Z,8.03
2019-03-09T04:42:48.745Z,8.07
2019-03-09T04:45:30.560Z,8.11
2019-03-09T04:48:12.315Z,8.16
2019-03-09T04:50:41.738Z,8.16
2019-03-09T04:53:30.584Z,8.22
2019-03-09T04:56:12.311Z,8.23
2019-03-09T04:58:41.731Z,8.23
2019-03-09T05:01:11.293Z,8.28
2019-03-09T05:03:40.967Z,8.28
2019-03-09T05:06:40.751Z,8.34
2019-03-09T05:13:00.843Z,8.47
2019-03-09T05:15:49.743Z,8.51
2019-03-09T05:18:31.630Z,8.51
2019-03-09T05:21:01.598Z,8.51
2019-03-09T05:23:31.213Z,8.50
2019-03-09T05:26:00.591Z,8.50
2019-03-09T05:28:30.239Z,8.50
2019-03-09T05:30:59.603Z,8.54
2019-03-09T05:37:03.331Z,8.48
2019-03-09T05:39:32.717Z,8.48
2019-03-09T05:42:02.649Z,8.48
2019-03-09T05:44:43.063Z,8.51
2019-03-09T05:47:12.721Z,8.54
2019-03-09T05:49:42.373Z,8.49
2019-03-09T05:52:31.149Z,8.45
2019-03-09T05:55:00.841Z,8.42
2019-03-09T06:00:29.776Z,8.40
2019-03-09T06:02:59.126Z,8.40
2019-03-09T06:09:02.944Z,8.38
2019-03-09T06:11:33.947Z,8.41
2019-03-09T06:14:16.006Z,8.43
2019-03-09T06:16:58.010Z,8.43
2019-03-09T06:19:39.741Z,8.37
2019-03-09T06:22:09.394Z,8.37
2019-03-09T06:24:39.175Z,8.41
2019-03-09T06:27:08.914Z,8.45
2019-03-09T06:29:38.566Z,8.45
2019-03-09T06:32:46.657Z,8.42
2019-03-09T06:35:46.869Z,8.32
2019-03-09T06:38:37.175Z,8.50
2019-03-09T06:41:18.050Z,8.54
2019-03-09T06:43:47.690Z,8.54
2019-03-09T06:46:17.088Z,8.55
2019-03-09T06:49:06.311Z,8.59
2019-03-09T06:51:36.045Z,8.65
2019-03-09T06:54:15.396Z,8.83
2019-03-09T06:56:44.867Z,8.83
2019-03-09T07:02:14.068Z,8.81
2019-03-09T07:04:43.710Z,8.81
2019-03-09T07:07:13.068Z,8.83
2019-03-09T07:09:44.199Z,8.82
2019-03-09T07:12:13.769Z,8.84
2019-03-09T07:18:32.678Z,8.85
2019-03-09T07:21:02.055Z,8.85
2019-03-09T07:23:33.028Z,8.92
2019-03-09T07:26:02.391Z,8.94
2019-03-09T07:28:33.143Z,8.94
2019-03-09T07:31:02.781Z,8.99
2019-03-09T07:33:33.155Z,8.99
2019-03-09T07:36:02.717Z,9.07
2019-03-09T07:38:33.206Z,9.13
2019-03-09T07:41:02.833Z,9.15
2019-03-09T07:43:33.261Z,9.17
2019-03-09T07:46:02.747Z,9.22
2019-03-09T07:48:33.238Z,9.21
2019-03-09T07:51:02.888Z,9.30
2019-03-09T07:53:33.237Z,9.36
2019-03-09T07:56:02.883Z,9.44
2019-03-09T07:58:33.215Z,9.44
2019-03-09T08:01:02.866Z,9.43
2019-03-09T08:03:33.175Z,9.37
2019-03-09T08:06:02.525Z,9.42
2019-03-09T08:08:33.350Z,9.46
2019-03-09T08:11:02.915Z,9.48
2019-03-09T08:13:33.265Z,9.50
2019-03-09T08:16:02.945Z,9.50
2019-03-09T08:18:33.216Z,9.50
2019-03-09T08:21:02.575Z,9.50
2019-03-09T08:23:33.727Z,9.56
2019-03-09T08:26:03.068Z,9.68
2019-03-09T08:28:33.340Z,9.83
2019-03-09T08:31:02.952Z,9.97
2019-03-09T08:36:29.291Z,10.14
2019-03-09T08:38:58.659Z,10.15
2019-03-09T08:41:28.112Z,10.05
2019-03-09T08:43:57.520Z,10.00
2019-03-09T08:46:27.436Z,9.98
2019-03-09T08:48:57.347Z,10.00
2019-03-09T08:51:26.694Z,9.96
2019-03-09T08:54:08.423Z,9.88
2019-03-09T08:59:34.110Z,9.90
2019-03-09T09:02:03.438Z,9.94
2019-03-09T09:04:34.784Z,10.00
2019-03-09T09:07:11.131Z,10.05
2019-03-09T09:09:40.810Z,10.04
2019-03-09T09:14:58.653Z,10.01
2019-03-09T09:17:28.268Z,10.01
2019-03-09T09:19:57.648Z,10.01
2019-03-09T09:22:27.484Z,10.02
2019-03-09T09:24:57.163Z,10.06
2019-03-09T09:27:26.574Z,10.10
2019-03-09T09:29:56.619Z,10.21
2019-03-09T09:32:27.039Z,10.31
2019-03-09T09:34:56.402Z,10.49
2019-03-09T09:37:25.755Z,10.53
2019-03-09T09:40:33.981Z,10.56
2019-03-09T09:43:03.351Z,10.55
2019-03-09T09:45:45.959Z,10.49
2019-03-09T09:48:15.341Z,10.49
2019-03-09T09:50:44.796Z,10.53
2019-03-09T09:53:33.344Z,10.55
2019-03-09T09:56:02.715Z,10.56
2019-03-09T09:58:33.320Z,10.57
2019-03-09T10:01:02.682Z,10.61
2019-03-09T10:03:33.413Z,10.75
2019-03-09T10:06:02.769Z,10.86
2019-03-09T10:08:32.382Z,10.92
2019-03-09T10:11:01.744Z,10.96
2019-03-09T10:13:31.326Z,11.03
2019-03-09T10:16:00.676Z,11.13
2019-03-09T10:18:30.335Z,11.14
2019-03-09T10:20:59.712Z,11.13
2019-03-09T10:23:29.457Z,11.13
2019-03-09T10:25:58.807Z,11.17
2019-03-09T10:28:28.431Z,11.26
2019-03-09T10:30:57.796Z,11.30
2019-03-09T10:33:27.446Z,11.35
2019-03-09T10:35:56.822Z,11.42
2019-03-09T10:38:28.097Z,11.52
2019-03-09T10:41:16.628Z,11.68
2019-03-09T10:43:46.302Z,11.95
2019-03-09T10:46:15.657Z,11.97
2019-03-09T10:48:45.310Z,11.91
2019-03-09T10:51:14.670Z,11.93
2019-03-09T10:53:44.019Z,11.93
2019-03-09T10:56:13.476Z,12.00
2019-03-09T10:58:43.135Z,12.08
2019-03-09T11:01:12.660Z,12.08
2019-03-09T11:03:42.347Z,12.00
2019-03-09T11:06:11.725Z,12.05
2019-03-09T11:08:41.361Z,12.18
2019-03-09T11:11:10.741Z,12.36
2019-03-09T11:13:40.096Z,12.40
2019-03-09T11:16:10.082Z,12.34
2019-03-09T11:18:59.357Z,12.44
2019-03-09T11:21:28.739Z,12.55
2019-03-09T11:23:58.100Z,12.70
2019-03-09T11:26:35.583Z,12.82
2019-03-09T11:29:04.946Z,12.77
2019-03-09T11:31:34.318Z,12.93
2019-03-09T11:34:04.061Z,13.18
2019-03-09T11:36:34.498Z,13.27
2019-03-09T11:42:18.752Z,13.25
2019-03-09T11:44:48.672Z,13.12
2019-03-09T11:47:18.025Z,13.05
2019-03-09T11:49:47.699Z,12.94
2019-03-09T11:52:20.430Z,12.75
2019-03-09T11:54:53.782Z,12.61
2019-03-09T11:57:23.138Z,12.47
2019-03-09T11:59:52.756Z,12.40
2019-03-09T12:02:22.128Z,12.41
2019-03-09T12:04:51.775Z,12.45
2019-03-09T12:07:21.148Z,12.62
2019-03-09T12:09:51.108Z,12.63
2019-03-09T12:12:20.478Z,12.52
2019-03-09T12:14:50.058Z,12.48
2019-03-09T12:17:19.961Z,12.62
2019-03-09T12:19:49.657Z,12.78
2019-03-09T12:22:19.014Z,12.80
2019-03-09T12:28:09.282Z,12.72
2019-03-09T12:30:38.946Z,12.58
2019-03-09T12:33:08.331Z,12.50
2019-03-09T12:35:38.001Z,12.49
2019-03-09T12:38:07.628Z,12.43
2019-03-09T12:40:37.403Z,12.37
2019-03-09T12:43:06.860Z,12.29
2019-03-09T12:45:49.026Z,12.17
2019-03-09T12:48:32.136Z,12.12
2019-03-09T12:51:13.863Z,12.06
2019-03-09T12:53:53.957Z,11.97
2019-03-09T12:56:23.337Z,11.85
2019-03-09T12:58:53.040Z,11.73
2019-03-09T13:01:22.673Z,11.61
2019-03-09T13:03:52.049Z,11.66
2019-03-09T13:06:21.402Z,11.86
2019-03-09T13:08:51.340Z,12.02
2019-03-09T13:11:21.050Z,12.03
2019-03-09T13:13:50.413Z,11.97
2019-03-09T13:16:20.020Z,11.89
2019-03-09T13:18:49.425Z,11.68
2019-03-09T13:24:15.203Z,11.78
2019-03-09T13:26:44.534Z,11.83
2019-03-09T13:29:14.176Z,11.89
2019-03-09T13:31:43.531Z,12.02
2019-03-09T13:34:13.052Z,12.19
2019-03-09T13:36:42.406Z,12.29
2019-03-09T13:39:12.079Z,12.26
2019-03-09T13:41:41.470Z,12.16
2019-03-09T13:44:11.181Z,12.13
2019-03-09T13:46:40.539Z,12.15
2019-03-09T13:49:10.169Z,12.14
2019-03-09T13:51:39.809Z,12.07
2019-03-09T13:54:09.295Z,12.00
2019-03-09T13:56:38.896Z,11.93
2019-03-09T13:59:08.598Z,11.82
2019-03-09T14:01:38.620Z,11.77
2019-03-09T14:04:09.598Z,11.77
2019-03-09T14:06:39.244Z,11.78
2019-03-09T14:09:29.771Z,11.72
2019-03-09T14:11:59.305Z,11.47
2019-03-09T14:14:28.679Z,11.36
2019-03-09T14:16:58.289Z,11.27
2019-03-09T14:19:27.666Z,11.15
2019-03-09T14:21:57.245Z,11.02
2019-03-09T14:24:38.577Z,10.74
2019-03-09T14:27:07.932Z,10.74
2019-03-09T14:29:37.597Z,10.71
2019-03-09T14:32:07.249Z,10.61
2019-03-09T14:34:36.627Z,10.43
2019-03-09T14:37:06.286Z,10.19
2019-03-09T14:39:35.957Z,9.71
2019-03-09T14:42:05.480Z,9.71
2019-03-09T14:44:34.838Z,9.35
2019-03-09T14:47:04.407Z,9.05
2019-03-09T14:49:34.711Z,8.86
2019-03-09T14:52:04.333Z,8.76
2019-03-09T14:54:34.750Z,8.74
2019-03-09T14:57:04.410Z,8.74
2019-03-09T14:59:34.888Z,8.78
2019-03-09T15:02:04.387Z,8.92
2019-03-09T15:04:34.759Z,8.92
2019-03-09T15:07:35.426Z,9.04
2019-03-09T15:10:35.494Z,9.13
2019-03-09T15:13:04.863Z,9.22
2019-03-09T15:15:34.846Z,9.33
2019-03-09T15:18:04.768Z,9.37
2019-03-09T15:20:34.875Z,9.39
2019-03-09T15:23:04.570Z,9.37
2019-03-09T15:25:34.845Z,9.19
2019-03-09T15:28:04.611Z,8.92
2019-03-09T15:30:35.887Z,8.81
2019-03-09T15:33:05.526Z,8.79
2019-03-09T15:35:35.002Z,8.86
2019-03-09T15:38:04.681Z,8.97
2019-03-09T15:40:34.943Z,9.05
2019-03-09T15:43:04.570Z,9.14
2019-03-09T15:45:34.933Z,9.24
2019-03-09T15:48:04.564Z,9.24
2019-03-09T15:50:35.037Z,9.28
2019-03-09T15:53:04.745Z,9.29
2019-03-09T15:55:35.349Z,9.20
2019-03-09T15:58:04.700Z,8.97
2019-03-09T16:00:35.285Z,8.75
2019-03-09T16:06:38.901Z,8.55
2019-03-09T16:09:08.255Z,8.55
2019-03-09T16:11:45.040Z,8.57
2019-03-09T16:14:28.072Z,8.57
2019-03-09T16:16:57.721Z,8.54
2019-03-09T16:19:28.741Z,8.48
2019-03-09T16:21:58.093Z,8.48
2019-03-09T16:24:27.737Z,8.48
2019-03-09T16:26:57.385Z,8.43
2019-03-09T16:29:46.149Z,8.31
2019-03-09T16:32:15.826Z,8.31
2019-03-09T16:34:45.178Z,8.32
2019-03-09T16:37:14.863Z,8.31
2019-03-09T16:39:44.294Z,8.30
2019-03-09T16:42:25.704Z,8.31
2019-03-09T16:44:55.062Z,8.31
2019-03-09T16:47:25.081Z,8.35
2019-03-09T16:49:54.723Z,8.35
2019-03-09T16:52:24.307Z,8.38
2019-03-09T16:55:44.849Z,8.35
2019-03-09T16:58:14.204Z,8.39
2019-03-09T17:00:43.861Z,8.42
2019-03-09T17:03:34.329Z,8.43
2019-03-09T17:06:14.319Z,8.49
2019-03-09T17:08:43.965Z,8.49
2019-03-09T17:11:13.333Z,8.53
2019-03-09T17:13:43.109Z,8.53
2019-03-09T17:16:12.491Z,8.50
2019-03-09T17:18:43.737Z,8.50
2019-03-09T17:21:13.096Z,8.48
2019-03-09T17:23:42.468Z,8.48
2019-03-09T17:26:24.112Z,8.46
2019-03-09T17:28:53.486Z,8.46
2019-03-09T17:31:23.166Z,8.42
2019-03-09T17:34:02.381Z,8.43
2019-03-09T17:36:32.058Z,8.43
2019-03-09T17:39:01.418Z,8.43
2019-03-09T17:41:32.416Z,8.47
2019-03-09T17:44:01.957Z,8.57
2019-03-09T17:46:31.348Z,8.57
2019-03-09T17:49:01.001Z,8.56
2019-03-09T17:51:42.253Z,8.51
2019-03-09T17:54:23.751Z,8.50
2019-03-09T17:56:53.130Z,8.50
2019-03-09T17:59:22.478Z,8.45
2019-03-09T18:01:52.163Z,8.27
2019-03-09T18:04:21.536Z,8.27
2019-03-09T18:06:51.182Z,8.20
2019-03-09T18:09:20.558Z,8.09
2019-03-09T18:11:50.207Z,7.98
2019-03-09T18:14:19.588Z,7.90
2019-03-09T18:16:52.703Z,7.81
2019-03-09T18:19:25.555Z,7.68
2019-03-09T18:21:55.233Z,7.52
2019-03-09T18:24:24.855Z,7.52
2019-03-09T18:26:54.228Z,7.44
2019-03-09T18:29:23.592Z,7.31
2019-03-09T18:31:53.252Z,7.20
2019-03-09T18:34:22.630Z,7.15
2019-03-09T18:37:11.571Z,7.05
2019-03-09T18:39:41.577Z,7.05
2019-03-09T18:42:30.583Z,7.01
2019-03-09T18:48:35.573Z,7.02
2019-03-09T18:51:24.580Z,6.95
2019-03-09T18:53:54.226Z,6.95
2019-03-09T18:56:23.601Z,6.90
2019-03-09T18:58:53.252Z,6.86
2019-03-09T19:01:22.650Z,6.86
2019-03-09T19:04:11.666Z,6.80
2019-03-09T19:06:41.270Z,6.80
2019-03-09T19:09:41.122Z,6.82
2019-03-09T19:12:11.454Z,6.79
2019-03-09T19:14:41.473Z,6.78
2019-03-09T19:17:31.516Z,6.71
2019-03-09T19:20:00.965Z,6.71
2019-03-09T19:22:49.831Z,6.66
2019-03-09T19:25:29.379Z,6.64
2019-03-09T19:27:58.734Z,6.64
2019-03-09T19:30:28.461Z,6.62
2019-03-09T19:33:00.698Z,6.59
2019-03-09T19:35:34.392Z,6.60
2019-03-09T19:38:03.770Z,6.58
2019-03-09T19:40:33.446Z,6.56
2019-03-09T19:43:02.798Z,6.55
2019-03-09T19:45:32.179Z,6.55
2019-03-09T19:48:21.000Z,6.45
2019-03-09T19:51:01.043Z,6.45
2019-03-09T19:53:30.501Z,6.45
2019-03-09T19:56:00.083Z,6.42
2019-03-09T19:58:39.726Z,6.38
2019-03-09T20:01:09.382Z,6.38
2019-03-09T20:03:39.066Z,6.40
2019-03-09T20:06:27.978Z,6.36
2019-03-09T20:08:57.667Z,6.36
2019-03-09T20:11:27.022Z,6.35
2019-03-09T20:13:56.558Z,6.34
2019-03-09T20:16:25.913Z,6.34
2019-03-09T20:18:55.527Z,6.34
2019-03-09T20:21:24.881Z,6.33
2019-03-09T20:23:54.540Z,6.33
2019-03-09T20:26:23.899Z,6.35
2019-03-09T20:28:53.568Z,6.32
2019-03-09T20:34:56.981Z,6.29
2019-03-09T20:37:26.672Z,6.27
2019-03-09T20:39:56.046Z,6.28
2019-03-09T20:42:25.695Z,6.28
2019-03-09T20:44:55.362Z,6.26
2019-03-09T20:47:24.718Z,6.26
2019-03-09T20:49:54.092Z,6.31
2019-03-09T20:52:23.648Z,6.33
2019-03-09T20:54:53.344Z,6.33
2019-03-09T20:57:22.814Z,6.30
2019-03-09T20:59:52.199Z,6.28
2019-03-09T21:02:32.073Z,6.24
2019-03-09T21:07:43.074Z,6.26
2019-03-09T21:10:32.110Z,6.25
2019-03-09T21:13:21.149Z,6.23
2019-03-09T21:15:50.827Z,6.23
2019-03-09T21:18:20.183Z,6.23
2019-03-09T21:20:49.864Z,6.22
2019-03-09T21:23:19.225Z,6.22
2019-03-09T21:25:48.887Z,6.23
2019-03-09T21:28:18.243Z,6.25
2019-03-09T21:30:48.135Z,6.23
2019-03-09T21:33:17.743Z,6.24
2019-03-09T21:35:47.116Z,6.24
2019-03-09T21:38:16.763Z,6.24
2019-03-09T21:40:48.046Z,6.25
2019-03-09T21:43:17.697Z,6.27
2019-03-09T21:45:47.723Z,6.31
2019-03-09T21:48:17.090Z,6.33
2019-03-09T21:50:46.478Z,6.34
2019-03-09T21:53:15.981Z,6.33
2019-03-09T21:55:45.419Z,6.33
2019-03-09T21:58:14.961Z,6.34
2019-03-09T22:00:44.364Z,6.33
2019-03-09T22:03:14.010Z,6.32
2019-03-09T22:05:45.311Z,6.29
2019-03-09T22:08:15.223Z,6.27
2019-03-09T22:10:44.609Z,6.28
2019-03-09T22:13:14.055Z,6.28
2019-03-09T22:15:43.432Z,6.29
2019-03-09T22:18:13.097Z,6.30
2019-03-09T22:20:42.489Z,6.29
2019-03-09T22:23:12.034Z,6.28
2019-03-09T22:25:41.415Z,6.32
2019-03-09T22:28:11.063Z,6.29
2019-03-09T22:30:40.761Z,6.28
2019-03-09T22:33:10.209Z,6.29
2019-03-09T22:35:39.596Z,6.30
2019-03-09T22:38:28.780Z,6.36
2019-03-09T22:40:58.158Z,6.36
2019-03-09T22:43:27.757Z,6.41
2019-03-09T22:45:59.054Z,6.41
2019-03-09T22:48:28.421Z,6.41
2019-03-09T22:54:33.293Z,6.47
2019-03-09T22:57:02.677Z,6.55
2019-03-09T22:59:32.228Z,6.56
2019-03-09T23:04:57.507Z,6.66
2019-03-09T23:07:27.182Z,6.69
2019-03-09T23:09:56.536Z,6.71
2019-03-09T23:12:26.169Z,6.73
2019-03-09T23:14:57.401Z,6.79
2019-03-09T23:17:26.790Z,6.81
2019-03-09T23:19:56.250Z,6.84
2019-03-09T23:22:25.626Z,6.86
2019-03-09T23:24:55.242Z,6.87
2019-03-09T23:27:24.618Z,6.88
2019-03-09T23:29:54.273Z,6.92
2019-03-09T23:32:23.650Z,6.95
2019-03-09T23:34:53.313Z,6.96
2019-03-09T23:37:22.695Z,6.98
2019-03-09T23:39:52.344Z,7.02
2019-03-09T23:42:21.722Z,7.03
2019-03-09T23:44:51.388Z,7.06
2019-03-09T23:47:22.403Z,7.09
2019-03-09T23:49:52.020Z,7.13
2019-03-09T23:52:21.403Z,7.14
2019-03-09T23:54:51.050Z,7.15
2019-03-09T23:57:39.891Z,7.10
